Time;durP1;ratioP1;P1;durP2;ratioP2;P2;SDS_P1;SDS_P2;PMS_P1;PMS_P2;Temp;Humidity;BMP_temperature;BMP_pressure;BME280_temperature;BME280_humidity;BME280_pressure;Samples;Min_cycle;Max_cycle;Signal;HPM_P1;HPM_P2
2022/07/15 00:00:26;;;;;;;3.50;3.20;;;23.20;57.00;;;;;;10457833;28;20291;-80
2022/07/15 00:05:28;;;;;;;3.57;3.27;;;23.20;59.00;;;;;;10454812;28;20566;-82
2022/07/15 00:10:30;;;;;;;3.40;3.10;;;23.10;57.10;;;;;;10457107;28;20225;-81
2022/07/15 00:15:34;;;;;;;4.10;3.00;;;23.00;57.60;;;;;;10456249;28;20220;-81
2022/07/15 00:20:37;;;;;;;3.10;2.90;;;22.90;57.10;;;;;;10455071;28;20285;-80
2022/07/15 00:25:39;;;;;;;4.70;2.33;;;22.80;57.10;;;;;;10455663;28;20209;-82
2022/07/15 00:30:42;;;;;;;3.00;2.70;;;22.60;57.40;;;;;;10481996;28;20229;-81
2022/07/15 00:35:44;;;;;;;3.33;3.10;;;22.50;58.80;;;;;;10455176;28;20716;-80
2022/07/15 00:40:48;;;;;;;4.87;3.60;;;22.40;58.80;;;;;;10454487;28;20249;-80
2022/07/15 00:45:52;;;;;;;3.60;3.30;;;22.30;59.70;;;;;;10442237;28;20264;-81
2022/07/15 00:50:55;;;;;;;3.33;2.97;;;22.20;59.10;;;;;;10460463;28;20381;-80
2022/07/15 00:56:00;;;;;;;3.13;2.83;;;22.10;58.90;;;;;;10457907;28;20232;-80
2022/07/15 01:01:04;;;;;;;3.20;3.00;;;22.00;58.70;;;;;;10455415;28;20297;-80
2022/07/15 01:06:06;;;;;;;3.93;3.20;;;21.90;58.90;;;;;;10450770;28;20687;-80
2022/07/15 01:11:09;;;;;;;3.10;2.73;;;21.80;59.90;;;;;;10447034;28;20332;-80
2022/07/15 01:16:13;;;;;;;3.30;3.00;;;21.70;61.00;;;;;;10465239;28;20697;-80
2022/07/15 01:21:17;;;;;;;2.90;2.70;;;21.70;60.70;;;;;;10483633;28;20620;-80
2022/07/15 01:26:20;;;;;;;3.43;2.40;;;21.60;60.20;;;;;;10465153;28;20193;-80
2022/07/15 01:31:23;;;;;;;4.10;3.17;;;21.50;59.80;;;;;;10458440;28;20686;-80
2022/07/15 01:36:26;;;;;;;3.60;3.30;;;21.40;61.00;;;;;;10458787;28;20282;-80
2022/07/15 01:41:34;;;;;;;3.30;3.00;;;21.30;60.80;;;;;;10457188;28;20217;-80
2022/07/15 01:46:37;;;;;;;5.83;3.50;;;21.30;62.00;;;;;;10459049;28;20287;-80
2022/07/15 01:51:41;;;;;;;3.17;2.97;;;21.20;61.80;;;;;;10458404;28;20237;-80
2022/07/15 01:56:44;;;;;;;3.50;3.20;;;21.20;62.10;;;;;;10455797;28;20217;-80
2022/07/15 02:01:47;;;;;;;4.77;3.83;;;21.10;62.40;;;;;;10439324;28;20220;-80
2022/07/15 02:06:53;;;;;;;3.33;3.03;;;21.00;63.40;;;;;;10458545;28;20216;-80
2022/07/15 02:11:56;;;;;;;3.53;3.23;;;21.00;63.50;;;;;;10454672;28;20221;-80
2022/07/15 02:17:02;;;;;;;5.00;4.37;;;20.90;62.50;;;;;;10453908;28;20224;-83
2022/07/15 02:22:10;;;;;;;3.63;3.33;;;20.90;62.90;;;;;;10439954;28;20617;-83
2022/07/15 02:27:12;;;;;;;4.07;3.10;;;20.80;62.90;;;;;;10454572;28;20216;-84
2022/07/15 02:32:14;;;;;;;3.90;3.50;;;20.70;63.60;;;;;;10439816;28;20650;-83
2022/07/15 02:37:19;;;;;;;3.53;3.23;;;20.60;64.20;;;;;;10456761;28;20288;-81
2022/07/15 02:42:25;;;;;;;4.17;3.77;;;20.60;64.40;;;;;;10471926;28;20205;-84
2022/07/15 02:47:28;;;;;;;3.70;3.40;;;20.60;63.90;;;;;;10462317;28;20276;-82
2022/07/15 02:52:34;;;;;;;3.63;3.30;;;20.60;63.70;;;;;;10455863;28;20197;-81
2022/07/15 02:57:37;;;;;;;3.30;3.10;;;20.50;62.50;;;;;;10453494;28;20245;-80
2022/07/15 03:02:39;;;;;;;3.10;2.80;;;20.50;63.10;;;;;;10455590;28;20323;-81
2022/07/15 03:07:46;;;;;;;3.30;3.00;;;20.40;63.40;;;;;;10454797;28;20225;-80
2022/07/15 03:12:52;;;;;;;2.73;2.53;;;20.40;62.70;;;;;;10461706;28;20258;-81
2022/07/15 03:17:55;;;;;;;4.60;2.90;;;20.40;63.80;;;;;;10462966;28;20228;-80
2022/07/15 03:22:58;;;;;;;3.23;3.00;;;20.40;63.50;;;;;;10462953;28;20225;-81
2022/07/15 03:28:01;;;;;;;4.70;3.00;;;20.40;61.50;;;;;;10463571;28;20254;-81
2022/07/15 03:33:06;;;;;;;4.53;3.40;;;20.30;62.70;;;;;;10455685;28;20296;-81
2022/07/15 03:38:11;;;;;;;3.00;1.97;;;20.20;62.90;;;;;;10461742;28;20312;-81
2022/07/15 03:43:13;;;;;;;3.60;3.20;;;20.20;62.80;;;;;;10463464;28;20198;-81
2022/07/15 03:48:16;;;;;;;3.40;3.13;;;20.20;62.10;;;;;;10461246;28;20283;-81
2022/07/15 03:53:19;;;;;;;3.57;3.27;;;20.20;63.70;;;;;;10461834;28;20708;-81
2022/07/15 03:58:21;;;;;;;4.80;3.60;;;20.20;62.20;;;;;;10461644;28;20307;-80
2022/07/15 04:03:23;;;;;;;4.10;3.13;;;20.20;62.40;;;;;;10438941;28;20197;-81
2022/07/15 04:08:28;;;;;;;3.23;3.03;;;20.20;63.20;;;;;;10463847;28;20610;-81
2022/07/15 04:13:30;;;;;;;3.60;3.23;;;20.20;64.90;;;;;;10457555;28;20217;-81
2022/07/15 04:18:33;;;;;;;4.90;3.70;;;20.20;65.00;;;;;;10454853;28;20213;-81
2022/07/15 04:23:36;;;;;;;5.43;3.17;;;20.20;63.80;;;;;;10440587;28;20217;-81
2022/07/15 04:28:38;;;;;;;3.43;3.13;;;20.20;65.00;;;;;;10458456;28;20220;-80
2022/07/15 04:33:41;;;;;;;4.03;3.60;;;20.20;65.80;;;;;;10458361;28;20217;-80
2022/07/15 04:38:44;;;;;;;3.33;3.03;;;20.30;65.70;;;;;;10440398;28;20225;-81
2022/07/15 04:43:47;;;;;;;3.30;3.00;;;20.30;66.10;;;;;;10464936;28;20196;-81
2022/07/15 04:54:28;;;;;;;3.87;3.10;;;20.30;66.40;;;;;;10326686;28;20247;-81
2022/07/15 04:59:30;;;;;;;3.50;3.20;;;20.30;66.60;;;;;;10418525;28;20225;-81
2022/07/15 05:04:32;;;;;;;7.73;3.60;;;20.20;67.20;;;;;;10460810;28;20221;-81
2022/07/15 05:09:36;;;;;;;3.60;3.30;;;20.20;67.30;;;;;;10457970;28;20226;-82
2022/07/15 05:14:40;;;;;;;4.00;3.60;;;20.20;68.50;;;;;;10462145;28;20677;-82
2022/07/15 05:19:43;;;;;;;4.10;3.80;;;20.20;70.30;;;;;;10456058;28;20232;-79
2022/07/15 05:24:46;;;;;;;4.90;3.60;;;20.30;74.00;;;;;;10453432;28;20189;-79
2022/07/15 05:29:50;;;;;;;3.43;3.23;;;20.30;76.90;;;;;;10453478;28;20248;-81
2022/07/15 05:34:52;;;;;;;4.07;3.73;;;20.30;74.30;;;;;;10452903;28;20216;-79
2022/07/15 05:39:57;;;;;;;4.30;3.90;;;20.30;74.00;;;;;;10456827;28;20280;-81
2022/07/15 05:45:09;;;;;;;7.50;4.60;;;20.30;73.30;;;;;;10456836;28;20194;-82
2022/07/15 05:50:15;;;;;;;3.97;3.50;;;20.40;72.10;;;;;;10456436;28;20240;-83
2022/07/15 05:55:18;;;;;;;4.47;3.83;;;20.40;72.70;;;;;;10463214;28;20270;-83
2022/07/15 06:00:21;;;;;;;3.67;3.43;;;20.50;72.80;;;;;;10469394;28;20300;-83
2022/07/15 06:05:23;;;;;;;4.33;4.00;;;20.60;71.20;;;;;;10459267;28;20588;-83
2022/07/15 06:10:31;;;;;;;7.90;4.07;;;20.70;69.10;;;;;;10461342;28;20307;-85
2022/07/15 06:15:34;;;;;;;4.43;3.70;;;20.80;70.40;;;;;;10467693;28;20213;-83
2022/07/15 06:20:36;;;;;;;6.00;3.70;;;20.90;70.20;;;;;;10467484;28;20244;-85
2022/07/15 06:25:40;;;;;;;4.23;3.63;;;21.00;69.40;;;;;;10450989;28;20197;-85
2022/07/15 06:30:45;;;;;;;6.20;4.00;;;21.10;69.10;;;;;;10462136;28;20237;-85
2022/07/15 06:35:47;;;;;;;4.37;3.27;;;21.30;68.50;;;;;;10469778;28;20523;-85
2022/07/15 06:40:52;;;;;;;5.17;3.57;;;21.40;68.00;;;;;;10475638;28;20217;-83
2022/07/15 06:45:54;;;;;;;3.83;3.37;;;21.60;66.20;;;;;;10465635;28;20193;-82
2022/07/15 06:50:56;;;;;;;3.13;2.93;;;21.80;67.10;;;;;;10484990;28;20306;-82
2022/07/15 06:56:00;;;;;;;4.33;3.40;;;22.00;65.60;;;;;;10460760;28;20227;-81
2022/07/15 07:01:03;;;;;;;8.10;3.53;;;22.30;64.50;;;;;;10455733;28;20217;-80
2022/07/15 07:06:06;;;;;;;3.20;3.00;;;22.50;62.00;;;;;;10474916;28;20193;-84
2022/07/15 07:11:10;;;;;;;3.40;3.10;;;22.80;60.20;;;;;;10475002;28;20209;-82
2022/07/15 07:16:12;;;;;;;3.30;3.00;;;23.00;58.80;;;;;;10505321;28;20213;-84
2022/07/15 07:21:15;;;;;;;2.70;2.50;;;23.20;56.30;;;;;;10474935;28;20220;-81
2022/07/15 07:26:19;;;;;;;4.47;3.20;;;23.40;55.10;;;;;;10475780;28;20202;-82
2022/07/15 07:31:25;;;;;;;3.43;2.77;;;23.60;55.60;;;;;;10476083;28;20274;-84
2022/07/15 07:36:27;;;;;;;2.23;2.13;;;23.80;55.20;;;;;;10470467;28;20225;-80
2022/07/15 07:41:31;;;;;;;4.40;3.60;;;24.00;54.60;;;;;;10461645;28;20564;-83
2022/07/15 07:46:33;;;;;;;3.00;2.80;;;24.20;53.60;;;;;;10465871;28;20280;-83
2022/07/15 07:51:35;;;;;;;4.77;2.80;;;24.30;53.30;;;;;;10467193;28;20220;-83
2022/07/15 07:56:39;;;;;;;3.03;2.80;;;24.50;54.80;;;;;;10465567;28;20270;-82
2022/07/15 08:01:41;;;;;;;3.50;2.47;;;24.80;52.20;;;;;;10464833;28;20222;-82
2022/07/15 08:06:43;;;;;;;2.63;2.43;;;25.00;52.40;;;;;;10464063;28;20252;-82
2022/07/15 08:11:47;;;;;;;3.60;2.57;;;25.20;50.90;;;;;;10465864;28;20263;-81
2022/07/15 08:16:49;;;;;;;2.83;2.63;;;25.40;50.70;;;;;;10469287;28;20295;-81
2022/07/15 08:21:51;;;;;;;2.97;2.77;;;25.70;51.50;;;;;;10464978;28;20218;-81
2022/07/15 08:26:55;;;;;;;3.00;2.50;;;26.00;50.10;;;;;;10468839;28;20200;-81
2022/07/15 08:31:57;;;;;;;3.07;2.30;;;26.40;48.80;;;;;;10467515;28;20248;-80
2022/07/15 08:36:59;;;;;;;3.20;2.50;;;26.80;47.90;;;;;;10470308;28;20277;-81
2022/07/15 08:42:03;;;;;;;2.80;2.70;;;27.30;49.10;;;;;;10468450;28;20236;-83
2022/07/15 08:47:06;;;;;;;2.90;2.60;;;27.90;46.90;;;;;;10467223;28;20217;-81
2022/07/15 08:52:11;;;;;;;6.97;2.43;;;28.40;46.10;;;;;;10465600;28;20684;-82
2022/07/15 08:57:15;;;;;;;2.80;2.60;;;28.90;46.00;;;;;;10461013;28;20217;-81
2022/07/15 09:02:20;;;;;;;4.13;2.80;;;29.40;44.90;;;;;;10462519;28;20212;-82
2022/07/15 09:07:22;;;;;;;3.03;2.27;;;29.70;43.40;;;;;;10461076;28;20225;-82
2022/07/15 09:12:25;;;;;;;3.83;3.53;;;30.00;44.20;;;;;;10462564;28;20669;-82
2022/07/15 09:17:27;;;;;;;3.80;2.00;;;30.30;44.00;;;;;;10461848;28;20217;-82
2022/07/15 09:22:31;;;;;;;3.47;2.40;;;30.60;43.70;;;;;;10465555;28;20208;-81
2022/07/15 09:27:37;;;;;;;2.80;2.60;;;31.00;43.70;;;;;;10464548;28;20217;-82
2022/07/15 09:38:00;;;;;;;3.07;2.77;;;31.50;43.70;;;;;;10456657;28;20221;-84
2022/07/15 09:43:05;;;;;;;3.10;2.90;;;31.70;44.00;;;;;;10461035;28;20200;-82
2022/07/15 09:48:08;;;;;;;2.67;2.47;;;32.10;42.80;;;;;;10462824;28;20700;-82
2022/07/15 09:53:15;;;;;;;4.20;2.87;;;32.30;41.30;;;;;;10458795;28;20201;-82
2022/07/15 09:58:19;;;;;;;2.70;2.50;;;32.40;42.30;;;;;;10443632;28;20254;-82
2022/07/15 10:03:23;;;;;;;2.83;2.63;;;33.00;42.20;;;;;;10457191;28;20280;-82
2022/07/15 10:08:26;;;;;;;3.60;2.60;;;33.70;39.60;;;;;;10463168;28;20209;-82
2022/07/15 10:13:44;;;;;;;2.63;2.43;;;34.70;41.10;;;;;;10462402;28;20705;-82
2022/07/15 10:19:00;;;;;;;2.70;2.50;;;35.00;39.90;;;;;;10467820;28;20258;-82
2022/07/15 10:24:27;;;;;;;2.57;2.47;;;34.80;38.30;;;;;;10479796;28;20255;-82
2022/07/15 10:29:32;;;;;;;4.80;2.70;;;34.70;39.20;;;;;;10453727;28;20228;-82
2022/07/15 10:34:35;;;;;;;3.30;3.00;;;33.90;38.80;;;;;;10456204;28;20255;-81
2022/07/15 10:39:51;;;;;;;2.73;2.53;;;32.90;39.90;;;;;;10452675;28;20228;-81
2022/07/15 10:45:10;;;;;;;2.90;2.70;;;31.80;41.60;;;;;;10460444;28;20278;-82
2022/07/15 10:50:39;;;;;;;1.90;1.80;;;30.90;42.20;;;;;;10460837;28;20259;-81
2022/07/15 10:55:41;;;;;;;4.17;3.27;;;30.00;42.90;;;;;;10455443;28;20292;-81
2022/07/15 11:00:46;;;;;;;5.60;3.03;;;29.40;43.40;;;;;;10459111;28;20311;-81
2022/07/15 11:06:07;;;;;;;3.03;2.77;;;28.90;45.00;;;;;;10459054;28;20327;-83
2022/07/15 11:11:43;;;;;;;5.63;3.10;;;28.50;45.30;;;;;;10463504;28;20227;-84
2022/07/15 11:16:46;;;;;;;4.20;2.97;;;28.20;46.10;;;;;;10454264;28;20217;-85
2022/07/15 11:21:50;;;;;;;3.83;3.27;;;28.00;45.10;;;;;;10474815;28;20526;-82
2022/07/15 11:26:52;;;;;;;3.50;2.87;;;27.80;46.10;;;;;;10458461;28;20235;-83
2022/07/15 11:31:56;;;;;;;3.53;3.33;;;27.70;46.60;;;;;;10470306;28;20248;-82
2022/07/15 11:37:01;;;;;;;6.20;2.90;;;27.60;46.00;;;;;;10469811;28;20748;-80
2022/07/15 11:47:30;;;;;;;3.50;3.30;;;27.80;45.60;;;;;;10373895;28;20323;-81
2022/07/15 11:52:32;;;;;;;3.00;2.80;;;27.70;46.20;;;;;;10472652;28;20201;-83
2022/07/15 11:57:35;;;;;;;3.60;3.30;;;27.60;46.40;;;;;;10472439;28;20728;-83
2022/07/15 12:02:38;;;;;;;3.50;3.20;;;27.50;47.60;;;;;;10477256;28;20201;-82
2022/07/15 12:07:42;;;;;;;5.10;3.80;;;27.50;48.10;;;;;;10475306;28;20224;-81
2022/07/15 12:12:54;;;;;;;3.40;3.20;;;27.50;48.10;;;;;;10492379;28;20193;-82
2022/07/15 12:17:58;;;;;;;3.63;3.37;;;27.50;46.90;;;;;;10480415;28;20221;-84
2022/07/15 12:23:05;;;;;;;3.20;2.67;;;27.50;46.80;;;;;;10477508;28;20224;-81
2022/07/15 12:28:08;;;;;;;4.20;3.47;;;27.40;47.10;;;;;;10473482;28;20227;-85
2022/07/15 12:33:20;;;;;;;3.67;3.37;;;27.40;47.60;;;;;;10501533;28;20204;-80
2022/07/15 12:38:30;;;;;;;3.27;3.03;;;27.40;46.80;;;;;;10488584;28;20221;-81
2022/07/15 12:43:49;;;;;;;3.27;3.07;;;27.50;48.20;;;;;;10471261;28;20204;-80
2022/07/15 12:48:52;;;;;;;3.93;3.20;;;27.50;47.70;;;;;;10504564;22;20251;-79
2022/07/15 12:54:06;;;;;;;3.43;3.20;;;27.50;47.80;;;;;;10500820;28;20269;-81
2022/07/15 12:59:09;;;;;;;2.90;2.70;;;27.60;47.10;;;;;;10501254;28;20228;-79
2022/07/15 13:04:14;;;;;;;3.60;3.27;;;27.60;47.20;;;;;;10497765;28;20200;-79
2022/07/15 13:09:16;;;;;;;4.20;3.20;;;27.60;48.10;;;;;;10499434;28;20212;-79
2022/07/15 13:14:18;;;;;;;3.80;3.47;;;27.50;49.70;;;;;;10500536;28;20197;-79
2022/07/15 13:19:22;;;;;;;3.90;3.17;;;27.30;48.60;;;;;;10492967;28;20204;-80
2022/07/15 13:24:24;;;;;;;4.77;4.40;;;27.20;48.20;;;;;;10495275;28;20283;-80
2022/07/15 13:29:26;;;;;;;3.80;3.50;;;27.00;48.70;;;;;;10500668;28;20231;-80
2022/07/15 13:34:29;;;;;;;3.30;3.10;;;26.90;49.50;;;;;;10501267;28;20204;-79
2022/07/15 13:39:31;;;;;;;2.77;2.57;;;26.80;49.00;;;;;;10498632;28;20225;-80
2022/07/15 13:44:34;;;;;;;3.90;3.60;;;26.90;48.90;;;;;;10499611;28;20196;-81
2022/07/15 13:54:57;;;;;;;3.87;3.17;;;27.10;48.50;;;;;;10500853;28;20247;-81
2022/07/15 13:59:59;;;;;;;2.73;2.53;;;27.20;48.60;;;;;;10499537;28;20217;-80
2022/07/15 14:05:03;;;;;;;3.90;3.60;;;27.20;48.30;;;;;;10498267;28;20254;-79
2022/07/15 14:10:06;;;;;;;3.40;3.20;;;27.30;48.50;;;;;;10502204;28;20216;-79
2022/07/15 14:15:09;;;;;;;3.10;2.90;;;27.30;48.10;;;;;;10499958;28;20307;-81
2022/07/15 14:20:14;;;;;;;3.57;3.27;;;27.40;47.90;;;;;;10500536;28;20337;-79
2022/07/15 14:25:17;;;;;;;4.70;3.40;;;27.40;47.90;;;;;;10501679;28;20209;-79
2022/07/15 14:30:19;;;;;;;3.20;3.00;;;27.40;48.00;;;;;;10503513;28;20270;-81
2022/07/15 14:35:23;;;;;;;3.50;3.00;;;27.50;47.40;;;;;;10499785;28;20753;-80
2022/07/15 14:40:25;;;;;;;3.03;2.83;;;27.50;47.60;;;;;;10499123;28;20220;-82
2022/07/15 14:45:27;;;;;;;3.40;3.20;;;27.50;48.10;;;;;;10500626;28;20219;-81
2022/07/15 14:50:32;;;;;;;3.47;3.17;;;27.40;47.60;;;;;;10499541;28;20233;-80
2022/07/15 14:55:34;;;;;;;5.70;2.73;;;27.20;47.50;;;;;;10480053;28;20286;-80
2022/07/15 15:00:39;;;;;;;3.37;3.07;;;27.10;47.60;;;;;;10498822;28;20216;-80
2022/07/15 15:05:43;;;;;;;3.40;3.10;;;26.90;48.80;;;;;;10496315;28;20196;-82
2022/07/15 15:10:45;;;;;;;2.90;2.70;;;26.80;48.20;;;;;;10503664;28;20243;-80
2022/07/15 15:15:47;;;;;;;2.87;2.70;;;26.70;48.60;;;;;;10509447;28;20220;-80
2022/07/15 15:20:51;;;;;;;3.30;3.00;;;26.50;49.30;;;;;;10506943;28;20236;-79
2022/07/15 15:31:13;;;;;;;3.20;3.00;;;26.40;48.90;;;;;;10494892;28;20273;-79
2022/07/15 15:36:19;;;;;;;3.47;3.07;;;26.40;48.60;;;;;;10500960;28;20213;-80
2022/07/15 15:41:21;;;;;;;3.87;3.50;;;26.20;49.10;;;;;;10502927;28;20224;-80
2022/07/15 15:46:23;;;;;;;4.10;3.10;;;26.20;49.50;;;;;;10501928;28;20197;-80
2022/07/15 15:51:27;;;;;;;3.47;3.17;;;26.20;49.00;;;;;;10500545;28;20353;-79
2022/07/15 15:56:29;;;;;;;8.17;3.40;;;26.20;48.60;;;;;;10501445;28;20248;-79
2022/07/15 16:01:31;;;;;;;3.80;3.50;;;26.10;47.90;;;;;;10498621;28;20584;-79
2022/07/15 16:06:34;;;;;;;3.60;3.20;;;26.00;48.10;;;;;;10500528;28;20193;-78
2022/07/15 16:11:36;;;;;;;2.73;2.53;;;26.00;49.10;;;;;;10498228;28;20220;-80
2022/07/15 16:16:39;;;;;;;3.00;2.73;;;25.90;48.00;;;;;;10499023;28;20221;-79
2022/07/15 16:27:02;;;;;;;3.30;2.73;;;25.90;47.80;;;;;;10478037;28;20204;-79
2022/07/15 16:32:04;;;;;;;3.37;3.17;;;25.80;48.60;;;;;;10497856;28;20669;-79
2022/07/15 16:37:08;;;;;;;3.30;3.00;;;25.80;48.20;;;;;;10498583;28;20302;-79
2022/07/15 16:42:10;;;;;;;4.67;3.40;;;25.80;47.70;;;;;;10497779;28;20297;-81
2022/07/15 16:47:13;;;;;;;2.80;2.70;;;25.70;49.00;;;;;;10498856;28;20635;-81
2022/07/15 16:52:16;;;;;;;7.37;4.10;;;25.70;48.30;;;;;;10497820;28;20220;-78
2022/07/15 16:57:18;;;;;;;4.10;3.20;;;25.60;48.40;;;;;;10496972;28;20225;-78
2022/07/15 17:02:20;;;;;;;4.50;3.47;;;25.50;49.00;;;;;;10498214;28;20692;-79
2022/07/15 17:07:26;;;;;;;3.37;3.17;;;25.50;49.10;;;;;;10499968;28;20256;-79
2022/07/15 17:12:28;;;;;;;4.90;3.87;;;25.50;49.50;;;;;;10496869;28;20276;-80
2022/07/15 17:17:30;;;;;;;3.77;3.50;;;25.40;49.60;;;;;;10498844;28;20224;-80
2022/07/15 17:22:33;;;;;;;3.77;3.27;;;25.40;49.10;;;;;;10495743;28;20262;-79
2022/07/15 17:27:36;;;;;;;3.70;3.40;;;25.30;49.40;;;;;;10496775;28;20245;-78
2022/07/15 17:32:38;;;;;;;4.43;3.10;;;25.30;50.50;;;;;;10493731;28;20208;-80
2022/07/15 17:37:41;;;;;;;3.23;2.93;;;25.20;49.70;;;;;;10495715;28;20230;-78
2022/07/15 17:42:44;;;;;;;3.53;3.13;;;25.20;50.00;;;;;;10497633;28;20246;-79
2022/07/15 17:47:46;;;;;;;4.23;3.23;;;25.10;49.80;;;;;;10494848;28;20201;-78
2022/07/15 17:52:51;;;;;;;3.40;3.10;;;25.10;50.10;;;;;;10496637;28;20278;-78
2022/07/15 17:57:53;;;;;;;3.50;3.20;;;25.10;50.40;;;;;;10496881;28;20228;-79
2022/07/15 18:02:55;;;;;;;3.10;2.90;;;25.10;50.10;;;;;;10498349;28;20295;-80
2022/07/15 18:07:58;;;;;;;3.23;3.03;;;25.00;50.30;;;;;;10496516;28;20616;-79
2022/07/15 18:13:01;;;;;;;3.50;3.00;;;24.90;50.80;;;;;;10494116;28;20565;-79
2022/07/15 18:18:03;;;;;;;3.57;3.27;;;24.80;50.70;;;;;;10497015;28;20220;-79
2022/07/15 18:23:07;;;;;;;3.63;3.33;;;24.80;50.70;;;;;;10494067;28;20235;-78
2022/07/15 18:28:09;;;;;;;2.77;2.57;;;24.70;49.70;;;;;;10499546;28;20228;-79
2022/07/15 18:33:12;;;;;;;3.70;3.40;;;24.60;50.50;;;;;;10513958;28;20220;-80
2022/07/15 18:38:27;;;;;;;3.50;3.20;;;24.60;50.90;;;;;;10516364;28;20222;-79
2022/07/15 18:43:30;;;;;;;4.17;3.87;;;24.50;51.80;;;;;;10540666;28;20200;-80
2022/07/15 18:53:40;;;;;;;7.93;3.63;;;24.40;51.10;;;;;;10580617;28;20260;-83
2022/07/15 18:58:42;;;;;;;4.00;3.70;;;24.30;53.10;;;;;;10583763;28;20244;-82
2022/07/15 19:03:44;;;;;;;4.40;4.00;;;24.20;52.80;;;;;;10566117;28;20659;-83
2022/07/15 19:08:48;;;;;;;3.90;3.60;;;24.20;52.60;;;;;;10548200;28;20622;-83
2022/07/15 19:13:50;;;;;;;4.30;3.90;;;24.10;54.00;;;;;;10565295;28;20199;-83
2022/07/15 19:18:52;;;;;;;4.27;3.80;;;24.00;53.30;;;;;;10565156;28;20225;-83
2022/07/15 19:23:56;;;;;;;5.90;3.43;;;24.00;53.90;;;;;;10565333;28;20227;-83
2022/07/15 19:28:58;;;;;;;4.17;3.90;;;23.90;53.30;;;;;;10565093;28;20685;-83
2022/07/15 19:34:00;;;;;;;4.40;4.10;;;23.80;52.60;;;;;;10566528;28;20675;-83
2022/07/15 19:39:04;;;;;;;4.23;3.83;;;23.80;54.30;;;;;;10549775;28;20310;-83
2022/07/15 19:44:06;;;;;;;4.10;3.80;;;23.70;53.20;;;;;;10564058;28;20581;-83
2022/07/15 19:49:08;;;;;;;4.30;3.90;;;23.70;53.50;;;;;;10547304;28;20311;-84
2022/07/15 19:54:12;;;;;;;4.20;3.97;;;23.60;53.40;;;;;;10546287;28;20234;-84
2022/07/15 20:04:33;;;;;;;4.80;4.27;;;23.50;54.10;;;;;;10563865;28;20655;-84
2022/07/15 20:09:37;;;;;;;5.27;4.77;;;23.50;55.90;;;;;;10562857;28;20254;-84
2022/07/15 20:14:39;;;;;;;4.93;4.53;;;23.40;55.10;;;;;;10563056;28;20191;-84
2022/07/15 20:19:41;;;;;;;5.10;4.60;;;23.40;55.60;;;;;;10545617;28;20239;-84
2022/07/15 20:24:45;;;;;;;5.60;4.20;;;23.40;56.80;;;;;;10545901;28;20202;-83
2022/07/15 20:29:47;;;;;;;3.87;3.57;;;23.30;54.90;;;;;;10545165;28;20639;-84
2022/07/15 20:34:49;;;;;;;11.20;4.70;;;23.20;55.10;;;;;;10545648;28;20199;-83
2022/07/15 20:39:53;;;;;;;4.17;3.87;;;23.20;56.20;;;;;;10545335;28;20313;-84
2022/07/15 20:44:55;;;;;;;4.03;3.60;;;23.10;54.30;;;;;;10545337;28;20735;-83
2022/07/15 20:50:00;;;;;;;4.20;3.80;;;23.10;55.60;;;;;;10562190;28;20296;-84
2022/07/15 20:55:05;;;;;;;4.53;4.00;;;23.00;55.10;;;;;;10561583;28;20224;-83
2022/07/15 21:00:09;;;;;;;4.73;4.30;;;22.80;55.50;;;;;;10574564;28;20249;-84
2022/07/15 21:05:11;;;;;;;4.63;4.30;;;22.70;55.80;;;;;;10562051;28;20210;-84
2022/07/15 21:10:15;;;;;;;5.27;4.00;;;22.60;56.20;;;;;;10544929;28;20575;-84
2022/07/15 21:15:17;;;;;;;4.80;4.40;;;22.40;56.40;;;;;;10573775;28;20197;-85
2022/07/15 21:20:20;;;;;;;5.43;4.90;;;22.30;56.50;;;;;;10564756;28;20218;-85
2022/07/15 21:30:43;;;;;;;4.70;4.30;;;22.20;57.00;;;;;;10563312;28;20223;-84
2022/07/15 21:35:45;;;;;;;4.77;4.37;;;22.10;56.70;;;;;;10578054;28;20195;-84
2022/07/15 21:40:49;;;;;;;4.70;4.17;;;21.90;55.90;;;;;;10560534;28;20223;-83
2022/07/15 21:45:51;;;;;;;5.20;4.73;;;21.80;56.40;;;;;;10562494;28;20203;-85
2022/07/15 21:50:53;;;;;;;5.90;5.37;;;21.70;56.20;;;;;;10552754;28;20223;-83
2022/07/15 21:55:57;;;;;;;6.83;5.77;;;21.60;57.50;;;;;;10551887;28;20199;-83
2022/07/15 22:00:59;;;;;;;6.20;5.70;;;21.60;57.10;;;;;;10551865;28;20231;-84
2022/07/15 22:06:01;;;;;;;7.80;5.13;;;21.50;56.70;;;;;;10551602;28;20621;-84
2022/07/15 22:11:05;;;;;;;4.73;4.43;;;21.40;57.50;;;;;;10568262;28;20226;-84
2022/07/15 22:16:08;;;;;;;5.20;4.80;;;21.30;57.10;;;;;;10556515;28;20196;-85
2022/07/15 22:21:10;;;;;;;4.40;4.20;;;21.20;57.50;;;;;;10557891;28;20219;-83
2022/07/15 22:26:14;;;;;;;5.67;5.13;;;21.20;58.40;;;;;;10576676;28;20191;-83
2022/07/15 22:31:16;;;;;;;6.83;5.60;;;21.10;58.30;;;;;;10559875;28;20234;-83
2022/07/15 22:36:18;;;;;;;5.73;5.30;;;21.10;58.10;;;;;;10559670;28;20187;-84
2022/07/15 22:41:22;;;;;;;6.70;6.10;;;21.10;58.20;;;;;;10575547;28;20689;-83
2022/07/15 22:46:24;;;;;;;6.30;5.70;;;21.00;58.80;;;;;;10559140;28;20226;-83
2022/07/15 22:51:26;;;;;;;6.50;6.00;;;21.00;59.10;;;;;;10552243;28;20223;-83
2022/07/15 22:56:30;;;;;;;8.20;5.30;;;20.90;58.40;;;;;;10559116;28;20195;-86
2022/07/15 23:01:32;;;;;;;6.50;6.00;;;20.80;59.10;;;;;;10575454;28;20257;-82
2022/07/15 23:06:34;;;;;;;6.93;6.33;;;20.80;59.40;;;;;;10575145;28;20212;-83
2022/07/15 23:11:37;;;;;;;5.27;4.87;;;20.70;59.50;;;;;;10559726;28;20250;-83
2022/07/15 23:16:40;;;;;;;6.27;5.67;;;20.60;59.20;;;;;;10545902;28;20242;-83
2022/07/15 23:21:42;;;;;;;5.37;4.93;;;20.60;59.70;;;;;;10594325;28;20290;-83
2022/07/15 23:26:45;;;;;;;6.63;5.37;;;20.60;58.90;;;;;;10556061;28;20199;-83
2022/07/15 23:31:47;;;;;;;6.03;5.53;;;20.50;59.60;;;;;;10562872;28;20219;-83
2022/07/15 23:36:50;;;;;;;6.77;5.07;;;20.50;59.80;;;;;;10550559;28;20694;-83
2022/07/15 23:41:53;;;;;;;7.17;6.07;;;20.40;61.40;;;;;;10558531;28;20600;-84
2022/07/15 23:46:55;;;;;;;5.80;5.30;;;20.40;61.10;;;;;;10591907;28;20195;-85
2022/07/15 23:51:57;;;;;;;6.30;5.80;;;20.40;60.60;;;;;;10554911;28;20265;-85
2022/07/15 23:57:01;;;;;;;5.43;4.93;;;20.30;60.20;;;;;;10560060;28;20599;-84
